sensor_id;sensor_type;location;lat;lon;timestamp;pressure;altitude;pressure_sealevel;temperature;humidity
12951;BME280;6540;50.858;7.232;2023-05-24T00:00:59;51753.69;;;-142.34;25.97
12951;BME280;6540;50.858;7.232;2023-05-24T00:03:26;51719.38;;;-142.34;25.77
12951;BME280;6540;50.858;7.232;2023-05-24T00:05:55;51757.72;;;-142.34;25.63
12951;BME280;6540;50.858;7.232;2023-05-24T00:08:21;51751.66;;;-142.34;25.91
12951;BME280;6540;50.858;7.232;2023-05-24T00:10:46;51747.63;;;-142.34;25.92
12951;BME280;6540;50.858;7.232;2023-05-24T00:13:13;51747.63;;;-142.34;25.78
12951;BME280;6540;50.858;7.232;2023-05-24T00:15:39;51753.69;;;-142.34;26.05
12951;BME280;6540;50.858;7.232;2023-05-24T00:18:04;51771.84;;;-142.34;26.54
12951;BME280;6540;50.858;7.232;2023-05-24T00:20:30;51749.66;;;-142.34;25.95
12951;BME280;6540;50.858;7.232;2023-05-24T00:22:55;51753.69;;;-142.34;25.76
12951;BME280;6540;50.858;7.232;2023-05-24T00:25:21;51741.56;;;-142.34;25.77
12951;BME280;6540;50.858;7.232;2023-05-24T00:27:46;51759.72;;;-142.34;25.44
12951;BME280;6540;50.858;7.232;2023-05-24T00:30:12;51763.75;;;-142.34;25.60
12951;BME280;6540;50.858;7.232;2023-05-24T00:32:37;51741.56;;;-142.34;25.37
12951;BME280;6540;50.858;7.232;2023-05-24T00:35:02;51729.47;;;-142.34;25.45
12951;BME280;6540;50.858;7.232;2023-05-24T00:37:28;51735.53;;;-142.34;25.74
12951;BME280;6540;50.858;7.232;2023-05-24T00:39:53;51727.44;;;-142.34;25.72
12951;BME280;6540;50.858;7.232;2023-05-24T00:42:19;51721.41;;;-142.34;25.71
12951;BME280;6540;50.858;7.232;2023-05-24T00:44:44;51761.75;;;-142.34;25.91
12951;BME280;6540;50.858;7.232;2023-05-24T00:47:10;51773.84;;;-142.34;25.41
12951;BME280;6540;50.858;7.232;2023-05-24T00:49:35;51713.34;;;-142.34;25.46
12951;BME280;6540;50.858;7.232;2023-05-24T00:52:01;51745.59;;;-142.34;25.81
12951;BME280;6540;50.858;7.232;2023-05-24T00:54:27;51725.44;;;-142.34;26.07
12951;BME280;6540;50.858;7.232;2023-05-24T00:56:53;51745.59;;;-142.34;25.45
12951;BME280;6540;50.858;7.232;2023-05-24T00:59:20;51717.38;;;-142.34;25.29
12951;BME280;6540;50.858;7.232;2023-05-24T01:01:45;51747.63;;;-142.34;25.74
12951;BME280;6540;50.858;7.232;2023-05-24T01:04:14;51737.53;;;-142.34;25.44
12951;BME280;6540;50.858;7.232;2023-05-24T01:07:14;51743.59;;;-142.34;25.41
12951;BME280;6540;50.858;7.232;2023-05-24T01:12:39;51741.56;;;-142.34;25.53
12951;BME280;6540;50.858;7.232;2023-05-24T01:15:23;51745.59;;;-142.34;25.66
12951;BME280;6540;50.858;7.232;2023-05-24T01:18:08;51727.44;;;-142.34;25.03
12951;BME280;6540;50.858;7.232;2023-05-24T01:20:36;51737.53;;;-142.34;25.68
12951;BME280;6540;50.858;7.232;2023-05-24T01:28:47;51761.75;;;-142.34;25.28
12951;BME280;6540;50.858;7.232;2023-05-24T01:31:15;51737.53;;;-142.34;25.23
12951;BME280;6540;50.858;7.232;2023-05-24T01:33:42;51769.81;;;-142.34;26.06
12951;BME280;6540;50.858;7.232;2023-05-24T01:36:07;51769.81;;;-142.34;25.86
12951;BME280;6540;50.858;7.232;2023-05-24T01:38:33;51798.06;;;-142.34;27.01
12951;BME280;6540;50.858;7.232;2023-05-24T01:41:04;51733.50;;;-142.34;25.93
12951;BME280;6540;50.858;7.232;2023-05-24T01:43:40;51777.88;;;-142.34;25.51
12951;BME280;6540;50.858;7.232;2023-05-24T01:46:24;51769.81;;;-142.34;26.27
12951;BME280;6540;50.858;7.232;2023-05-24T01:49:43;51785.94;;;-142.34;26.33
12951;BME280;6540;50.858;7.232;2023-05-24T01:51:53;51761.75;;;-142.34;26.76
12951;BME280;6540;50.858;7.232;2023-05-24T01:54:24;51798.06;;;-142.34;26.00
12951;BME280;6540;50.858;7.232;2023-05-24T01:56:52;51759.72;;;-142.34;25.68
12951;BME280;6540;50.858;7.232;2023-05-24T01:59:19;51757.72;;;-142.34;25.70
12951;BME280;6540;50.858;7.232;2023-05-24T02:01:46;51745.59;;;-142.34;26.07
12951;BME280;6540;50.858;7.232;2023-05-24T02:04:12;51769.81;;;-142.34;26.64
12951;BME280;6540;50.858;7.232;2023-05-24T02:06:37;51769.81;;;-142.34;25.75
12951;BME280;6540;50.858;7.232;2023-05-24T02:09:03;51767.81;;;-142.34;25.75
12951;BME280;6540;50.858;7.232;2023-05-24T02:11:28;51785.94;;;-142.34;25.74
12951;BME280;6540;50.858;7.232;2023-05-24T02:13:53;51771.84;;;-142.34;25.15
12951;BME280;6540;50.858;7.232;2023-05-24T02:16:19;51769.81;;;-142.34;25.46
12951;BME280;6540;50.858;7.232;2023-05-24T02:18:44;51753.69;;;-142.34;25.25
12951;BME280;6540;50.858;7.232;2023-05-24T02:21:11;51753.69;;;-142.34;25.32
12951;BME280;6540;50.858;7.232;2023-05-24T02:23:37;51739.56;;;-142.34;25.68
12951;BME280;6540;50.858;7.232;2023-05-24T02:26:02;51753.69;;;-142.34;26.30
12951;BME280;6540;50.858;7.232;2023-05-24T02:28:27;51798.06;;;-142.34;26.35
12951;BME280;6540;50.858;7.232;2023-05-24T02:30:56;51790.00;;;-142.34;26.67
12951;BME280;6540;50.858;7.232;2023-05-24T02:33:21;51767.81;;;-142.34;26.36
12951;BME280;6540;50.858;7.232;2023-05-24T02:35:50;51798.06;;;-142.34;26.65
12951;BME280;6540;50.858;7.232;2023-05-24T02:38:15;51794.03;;;-142.34;25.44
12951;BME280;6540;50.858;7.232;2023-05-24T02:40:40;51773.84;;;-142.34;25.46
12951;BME280;6540;50.858;7.232;2023-05-24T02:43:06;51790.00;;;-142.34;25.19
12951;BME280;6540;50.858;7.232;2023-05-24T02:45:31;51765.78;;;-142.34;25.88
12951;BME280;6540;50.858;7.232;2023-05-24T02:47:56;51765.78;;;-142.34;26.07
12951;BME280;6540;50.858;7.232;2023-05-24T02:50:22;51814.19;;;-142.34;25.44
12951;BME280;6540;50.858;7.232;2023-05-24T02:52:47;51773.84;;;-142.34;25.58
12951;BME280;6540;50.858;7.232;2023-05-24T02:55:12;51781.91;;;-142.34;25.19
12951;BME280;6540;50.858;7.232;2023-05-24T02:57:38;51767.81;;;-142.34;25.40
12951;BME280;6540;50.858;7.232;2023-05-24T03:00:07;51771.84;;;-142.34;25.25
12951;BME280;6540;50.858;7.232;2023-05-24T03:02:35;51753.69;;;-142.34;25.49
12951;BME280;6540;50.858;7.232;2023-05-24T03:05:02;51792.00;;;-142.34;26.29
12951;BME280;6540;50.858;7.232;2023-05-24T03:07:28;51777.88;;;-142.34;25.53
12951;BME280;6540;50.858;7.232;2023-05-24T03:09:53;51783.94;;;-142.34;25.49
12951;BME280;6540;50.858;7.232;2023-05-24T03:12:18;51769.81;;;-142.34;25.56
12951;BME280;6540;50.858;7.232;2023-05-24T03:14:44;51753.69;;;-142.34;25.51
12951;BME280;6540;50.858;7.232;2023-05-24T03:17:09;51765.78;;;-142.34;25.05
12951;BME280;6540;50.858;7.232;2023-05-24T03:19:35;51781.91;;;-142.34;26.21
12951;BME280;6540;50.858;7.232;2023-05-24T03:22:01;51794.03;;;-142.34;26.09
12951;BME280;6540;50.858;7.232;2023-05-24T03:24:27;51769.81;;;-142.34;26.46
12951;BME280;6540;50.858;7.232;2023-05-24T03:26:52;51763.75;;;-142.34;26.38
12951;BME280;6540;50.858;7.232;2023-05-24T03:29:17;51777.88;;;-142.34;25.63
12951;BME280;6540;50.858;7.232;2023-05-24T03:31:43;51779.91;;;-142.34;25.68
12951;BME280;6540;50.858;7.232;2023-05-24T03:34:08;51816.22;;;-142.34;25.41
12951;BME280;6540;50.858;7.232;2023-05-24T03:36:33;51802.09;;;-142.34;25.21
12951;BME280;6540;50.858;7.232;2023-05-24T03:38:59;51761.75;;;-142.34;25.24
12951;BME280;6540;50.858;7.232;2023-05-24T03:41:24;51769.81;;;-142.34;25.12
12951;BME280;6540;50.858;7.232;2023-05-24T03:43:51;51779.91;;;-142.34;25.29
12951;BME280;6540;50.858;7.232;2023-05-24T03:46:17;51785.94;;;-142.34;25.12
12951;BME280;6540;50.858;7.232;2023-05-24T03:48:42;51765.78;;;-142.34;25.32
12951;BME280;6540;50.858;7.232;2023-05-24T03:51:07;51785.94;;;-142.34;25.14
12951;BME280;6540;50.858;7.232;2023-05-24T03:53:33;51753.69;;;-142.34;25.06
12951;BME280;6540;50.858;7.232;2023-05-24T03:55:58;51777.88;;;-142.34;25.20
12951;BME280;6540;50.858;7.232;2023-05-24T03:58:24;51747.63;;;-142.34;25.22
12951;BME280;6540;50.858;7.232;2023-05-24T04:00:49;51790.00;;;-142.34;25.49
12951;BME280;6540;50.858;7.232;2023-05-24T04:03:15;51771.84;;;-142.34;26.29
12951;BME280;6540;50.858;7.232;2023-05-24T04:05:40;51810.16;;;-142.34;26.66
12951;BME280;6540;50.858;7.232;2023-05-24T04:08:05;51781.91;;;-142.34;26.13
12951;BME280;6540;50.858;7.232;2023-05-24T04:10:31;51773.84;;;-142.34;25.84
12951;BME280;6540;50.858;7.232;2023-05-24T04:12:56;51806.13;;;-142.34;25.73
12951;BME280;6540;50.858;7.232;2023-05-24T04:15:22;51781.91;;;-142.34;26.02
12951;BME280;6540;50.858;7.232;2023-05-24T04:17:48;51785.94;;;-142.34;26.10
12951;BME280;6540;50.858;7.232;2023-05-24T04:20:19;51814.19;;;-142.34;26.28
12951;BME280;6540;50.858;7.232;2023-05-24T04:22:47;51796.03;;;-142.34;26.57
12951;BME280;6540;50.858;7.232;2023-05-24T04:25:13;51802.09;;;-142.34;27.27
12951;BME280;6540;50.858;7.232;2023-05-24T04:27:38;51787.97;;;-142.34;26.42
12951;BME280;6540;50.858;7.232;2023-05-24T04:30:05;51765.78;;;-142.34;26.31
12951;BME280;6540;50.858;7.232;2023-05-24T04:32:31;51777.88;;;-142.34;26.59
12951;BME280;6540;50.858;7.232;2023-05-24T04:34:56;51779.91;;;-142.34;25.24
12951;BME280;6540;50.858;7.232;2023-05-24T04:37:21;51773.84;;;-142.34;25.91
12951;BME280;6540;50.858;7.232;2023-05-24T04:39:48;51765.78;;;-142.34;25.92
12951;BME280;6540;50.858;7.232;2023-05-24T04:42:14;51765.78;;;-142.34;25.04
12951;BME280;6540;50.858;7.232;2023-05-24T04:44:40;51749.66;;;-142.34;25.21
12951;BME280;6540;50.858;7.232;2023-05-24T04:47:06;51737.53;;;-142.34;25.32
12951;BME280;6540;50.858;7.232;2023-05-24T04:49:31;51717.38;;;-142.34;25.06
12951;BME280;6540;50.858;7.232;2023-05-24T04:51:57;51733.50;;;-142.34;25.16
12951;BME280;6540;50.858;7.232;2023-05-24T04:54:23;51705.25;;;-142.34;25.84
12951;BME280;6540;50.858;7.232;2023-05-24T04:56:48;51729.47;;;-142.34;25.46
12951;BME280;6540;50.858;7.232;2023-05-24T04:59:14;51713.34;;;-142.34;25.62
12951;BME280;6540;50.858;7.232;2023-05-24T05:01:39;51749.66;;;-142.34;27.03
12951;BME280;6540;50.858;7.232;2023-05-24T05:04:05;51773.84;;;-142.34;26.37
12951;BME280;6540;50.858;7.232;2023-05-24T05:06:34;51783.94;;;-142.34;27.12
12951;BME280;6540;50.858;7.232;2023-05-24T05:09:04;51773.84;;;-142.34;27.45
12951;BME280;6540;50.858;7.232;2023-05-24T05:11:29;51765.78;;;-142.34;26.56
12951;BME280;6540;50.858;7.232;2023-05-24T05:13:55;51777.88;;;-142.34;26.85
12951;BME280;6540;50.858;7.232;2023-05-24T05:16:21;51745.59;;;-142.34;26.92
12951;BME280;6540;50.858;7.232;2023-05-24T05:18:46;51773.84;;;-142.34;28.39
12951;BME280;6540;50.858;7.232;2023-05-24T05:21:11;51771.84;;;-142.34;27.06
12951;BME280;6540;50.858;7.232;2023-05-24T05:23:37;51765.78;;;-142.34;26.06
12951;BME280;6540;50.858;7.232;2023-05-24T05:26:04;51753.69;;;-142.34;26.11
12951;BME280;6540;50.858;7.232;2023-05-24T05:28:30;51729.47;;;-142.34;25.80
12951;BME280;6540;50.858;7.232;2023-05-24T05:30:56;51753.69;;;-142.34;25.51
12951;BME280;6540;50.858;7.232;2023-05-24T05:33:21;51757.72;;;-142.34;26.58
12951;BME280;6540;50.858;7.232;2023-05-24T05:35:46;51745.59;;;-142.34;26.15
12951;BME280;6540;50.858;7.232;2023-05-24T05:38:12;51699.22;;;-142.34;24.85
12951;BME280;6540;50.858;7.232;2023-05-24T05:40:37;51697.19;;;-142.34;25.07
12951;BME280;6540;50.858;7.232;2023-05-24T05:43:03;51721.41;;;-142.34;24.79
12951;BME280;6540;50.858;7.232;2023-05-24T05:45:28;51664.91;;;-142.34;24.77
12951;BME280;6540;50.858;7.232;2023-05-24T05:47:54;51670.97;;;-142.34;24.89
12951;BME280;6540;50.858;7.232;2023-05-24T05:50:19;51685.09;;;-142.34;24.33
12951;BME280;6540;50.858;7.232;2023-05-24T05:52:44;51675.00;;;-142.34;24.35
12951;BME280;6540;50.858;7.232;2023-05-24T05:55:10;51687.09;;;-142.34;24.71
12951;BME280;6540;50.858;7.232;2023-05-24T05:57:36;51681.06;;;-142.34;24.96
12951;BME280;6540;50.858;7.232;2023-05-24T06:00:02;51662.91;;;-142.34;24.36
12951;BME280;6540;50.858;7.232;2023-05-24T06:02:27;51737.53;;;-142.34;26.11
12951;BME280;6540;50.858;7.232;2023-05-24T06:04:53;51695.19;;;-142.34;26.07
12951;BME280;6540;50.858;7.232;2023-05-24T06:07:18;51701.22;;;-142.34;26.82
12951;BME280;6540;50.858;7.232;2023-05-24T06:09:44;51673.00;;;-142.34;24.92
12951;BME280;6540;50.858;7.232;2023-05-24T06:12:09;51721.41;;;-142.34;24.81
12951;BME280;6540;50.858;7.232;2023-05-24T06:14:35;51654.84;;;-142.34;25.33
12951;BME280;6540;50.858;7.232;2023-05-24T06:17:04;51632.66;;;-142.34;25.02
12951;BME280;6540;50.858;7.232;2023-05-24T06:19:29;51644.75;;;-142.34;23.85
12951;BME280;6540;50.858;7.232;2023-05-24T06:21:55;51632.66;;;-142.34;24.22
12951;BME280;6540;50.858;7.232;2023-05-24T06:24:22;51596.34;;;-142.34;24.17
12951;BME280;6540;50.858;7.232;2023-05-24T06:26:51;51590.28;;;-142.34;23.65
12951;BME280;6540;50.858;7.232;2023-05-24T06:29:17;51582.22;;;-142.34;23.78
12951;BME280;6540;50.858;7.232;2023-05-24T06:31:47;51608.44;;;-142.34;23.46
12951;BME280;6540;50.858;7.232;2023-05-24T06:34:13;51519.69;;;-142.34;23.24
12951;BME280;6540;50.858;7.232;2023-05-24T06:36:42;51485.41;;;-142.34;23.35
12951;BME280;6540;50.858;7.232;2023-05-24T06:39:14;51568.09;;;-142.34;23.32
12951;BME280;6540;50.858;7.232;2023-05-24T06:41:40;51535.81;;;-142.34;24.31
12951;BME280;6540;50.858;7.232;2023-05-24T06:44:07;51570.13;;;-142.34;23.64
12951;BME280;6540;50.858;7.232;2023-05-24T06:46:33;51648.78;;;-142.34;25.44
12951;BME280;6540;50.858;7.232;2023-05-24T06:48:58;51551.97;;;-142.34;24.42
12951;BME280;6540;50.858;7.232;2023-05-24T06:51:24;51660.88;;;-142.34;24.51
12951;BME280;6540;50.858;7.232;2023-05-24T06:53:49;51652.81;;;-142.34;23.88
12951;BME280;6540;50.858;7.232;2023-05-24T06:56:15;51691.16;;;-142.34;26.58
12951;BME280;6540;50.858;7.232;2023-05-24T06:58:40;51640.72;;;-142.34;26.22
12951;BME280;6540;50.858;7.232;2023-05-24T07:01:09;51549.94;;;-142.34;25.02
12951;BME280;6540;50.858;7.232;2023-05-24T07:03:36;51495.47;;;-142.34;23.70
12951;BME280;6540;50.858;7.232;2023-05-24T07:06:02;51556.00;;;-142.34;23.58
12951;BME280;6540;50.858;7.232;2023-05-24T07:08:27;51424.88;;;-142.34;23.02
12951;BME280;6540;50.858;7.232;2023-05-24T07:11:09;51414.78;;;-142.34;22.71
12951;BME280;6540;50.858;7.232;2023-05-24T07:13:35;51616.50;;;-142.34;23.99
12951;BME280;6540;50.858;7.232;2023-05-24T07:16:00;51634.66;;;-142.34;24.74
12951;BME280;6540;50.858;7.232;2023-05-24T07:18:26;51701.22;;;-142.34;26.13
12951;BME280;6540;50.858;7.232;2023-05-24T07:20:54;51673.00;;;-142.34;24.83
12951;BME280;6540;50.858;7.232;2023-05-24T07:23:19;51721.41;;;-142.34;25.18
12951;BME280;6540;50.858;7.232;2023-05-24T07:25:45;51723.41;;;-142.34;25.36
12951;BME280;6540;50.858;7.232;2023-05-24T07:28:11;51685.09;;;-142.34;24.39
12951;BME280;6540;50.858;7.232;2023-05-24T07:30:38;51733.50;;;-142.34;26.00
12951;BME280;6540;50.858;7.232;2023-05-24T07:33:03;51677.03;;;-142.34;24.44
12951;BME280;6540;50.858;7.232;2023-05-24T07:35:28;51713.34;;;-142.34;26.08
12951;BME280;6540;50.858;7.232;2023-05-24T07:37:55;51723.41;;;-142.34;25.38
12951;BME280;6540;50.858;7.232;2023-05-24T07:40:21;51725.44;;;-142.34;25.84
12951;BME280;6540;50.858;7.232;2023-05-24T07:42:47;51721.41;;;-142.34;25.56
12951;BME280;6540;50.858;7.232;2023-05-24T07:45:12;51693.16;;;-142.34;24.15
12951;BME280;6540;50.858;7.232;2023-05-24T07:47:39;51679.03;;;-142.34;24.66
12951;BME280;6540;50.858;7.232;2023-05-24T07:50:06;51664.91;;;-142.34;25.83
12951;BME280;6540;50.858;7.232;2023-05-24T07:52:31;51723.41;;;-142.34;24.63
12951;BME280;6540;50.858;7.232;2023-05-24T07:54:56;51727.44;;;-142.34;24.70
12951;BME280;6540;50.858;7.232;2023-05-24T07:57:22;51677.03;;;-142.34;24.34
12951;BME280;6540;50.858;7.232;2023-05-24T07:59:48;51685.09;;;-142.34;24.63
12951;BME280;6540;50.858;7.232;2023-05-24T08:02:13;51733.50;;;-142.34;25.43
12951;BME280;6540;50.858;7.232;2023-05-24T08:04:41;51723.41;;;-142.34;26.02
12951;BME280;6540;50.858;7.232;2023-05-24T08:07:06;51733.50;;;-142.34;26.77
12951;BME280;6540;50.858;7.232;2023-05-24T08:09:31;51677.03;;;-142.34;25.22
12951;BME280;6540;50.858;7.232;2023-05-24T08:12:00;51673.00;;;-142.34;24.85
12951;BME280;6540;50.858;7.232;2023-05-24T08:14:26;51683.06;;;-142.34;25.08
12951;BME280;6540;50.858;7.232;2023-05-24T08:16:52;51731.50;;;-142.34;25.97
12951;BME280;6540;50.858;7.232;2023-05-24T08:19:17;51721.41;;;-142.34;25.13
12951;BME280;6540;50.858;7.232;2023-05-24T08:21:48;51693.16;;;-142.34;25.05
12951;BME280;6540;50.858;7.232;2023-05-24T08:24:14;51705.25;;;-142.34;25.66
12951;BME280;6540;50.858;7.232;2023-05-24T08:26:40;51689.13;;;-142.34;24.80
12951;BME280;6540;50.858;7.232;2023-05-24T08:29:05;51697.19;;;-142.34;24.24
12951;BME280;6540;50.858;7.232;2023-05-24T08:31:33;51695.19;;;-142.34;24.56
12951;BME280;6540;50.858;7.232;2023-05-24T08:33:58;51685.09;;;-142.34;24.49
12951;BME280;6540;50.858;7.232;2023-05-24T08:36:25;51664.91;;;-142.34;23.68
12951;BME280;6540;50.858;7.232;2023-05-24T08:38:50;51662.91;;;-142.34;23.55
12951;BME280;6540;50.858;7.232;2023-05-24T08:41:16;51640.72;;;-142.34;23.67
12951;BME280;6540;50.858;7.232;2023-05-24T08:43:41;51636.69;;;-142.34;23.47
12951;BME280;6540;50.858;7.232;2023-05-24T08:46:09;51703.25;;;-142.34;24.99
12951;BME280;6540;50.858;7.232;2023-05-24T08:48:44;51664.91;;;-142.34;24.09
12951;BME280;6540;50.858;7.232;2023-05-24T08:51:10;51693.16;;;-142.34;24.51
12951;BME280;6540;50.858;7.232;2023-05-24T08:53:37;51670.97;;;-142.34;25.06
12951;BME280;6540;50.858;7.232;2023-05-24T08:56:04;51725.44;;;-142.34;25.04
12951;BME280;6540;50.858;7.232;2023-05-24T08:58:30;51725.44;;;-142.34;24.83
12951;BME280;6540;50.858;7.232;2023-05-24T09:00:58;51729.47;;;-142.34;25.37
12951;BME280;6540;50.858;7.232;2023-05-24T09:03:25;51749.66;;;-142.34;25.66
12951;BME280;6540;50.858;7.232;2023-05-24T09:05:51;51721.41;;;-142.34;25.46
12951;BME280;6540;50.858;7.232;2023-05-24T09:08:17;51729.47;;;-142.34;23.73
12951;BME280;6540;50.858;7.232;2023-05-24T09:10:45;51664.91;;;-142.34;24.84
12951;BME280;6540;50.858;7.232;2023-05-24T09:13:14;51685.09;;;-142.34;24.30
12951;BME280;6540;50.858;7.232;2023-05-24T09:15:44;51648.78;;;-142.34;24.46
12951;BME280;6540;50.858;7.232;2023-05-24T09:18:10;51668.97;;;-142.34;23.92
12951;BME280;6540;50.858;7.232;2023-05-24T09:20:35;51662.91;;;-142.34;24.22
12951;BME280;6540;50.858;7.232;2023-05-24T09:23:10;51673.00;;;-142.34;24.41
12951;BME280;6540;50.858;7.232;2023-05-24T09:25:42;51664.91;;;-142.34;24.30
12951;BME280;6540;50.858;7.232;2023-05-24T09:28:08;51673.00;;;-142.34;23.87
12951;BME280;6540;50.858;7.232;2023-05-24T09:30:35;51640.72;;;-142.34;23.29
12951;BME280;6540;50.858;7.232;2023-05-24T09:33:00;51689.13;;;-142.34;24.17
12951;BME280;6540;50.858;7.232;2023-05-24T09:35:29;51648.78;;;-142.34;23.03
12951;BME280;6540;50.858;7.232;2023-05-24T09:38:04;51656.84;;;-142.34;23.41
12951;BME280;6540;50.858;7.232;2023-05-24T09:40:30;51648.78;;;-142.34;23.70
12951;BME280;6540;50.858;7.232;2023-05-24T09:43:06;51664.91;;;-142.34;24.23
12951;BME280;6540;50.858;7.232;2023-05-24T09:45:53;51664.91;;;-142.34;23.87
12951;BME280;6540;50.858;7.232;2023-05-24T09:48:20;51636.69;;;-142.34;22.76
12951;BME280;6540;50.858;7.232;2023-05-24T09:51:02;51588.28;;;-142.34;22.99
12951;BME280;6540;50.858;7.232;2023-05-24T09:53:29;51628.63;;;-142.34;23.55
12951;BME280;6540;50.858;7.232;2023-05-24T09:55:58;51600.38;;;-142.34;23.77
12951;BME280;6540;50.858;7.232;2023-05-24T09:58:31;51618.53;;;-142.34;23.35
12951;BME280;6540;50.858;7.232;2023-05-24T10:01:23;51584.22;;;-142.34;22.92
12951;BME280;6540;50.858;7.232;2023-05-24T10:03:51;51572.13;;;-142.34;22.94
12951;BME280;6540;50.858;7.232;2023-05-24T10:06:17;51622.56;;;-142.34;23.14
12951;BME280;6540;50.858;7.232;2023-05-24T10:08:43;51612.47;;;-142.34;22.72
12951;BME280;6540;50.858;7.232;2023-05-24T10:11:09;51640.72;;;-142.34;23.63
12951;BME280;6540;50.858;7.232;2023-05-24T10:13:38;51608.44;;;-142.34;23.99
12951;BME280;6540;50.858;7.232;2023-05-24T10:16:06;51608.44;;;-142.34;22.81
12951;BME280;6540;50.858;7.232;2023-05-24T10:18:32;51614.50;;;-142.34;23.55
12951;BME280;6540;50.858;7.232;2023-05-24T10:21:04;51612.47;;;-142.34;23.31
12951;BME280;6540;50.858;7.232;2023-05-24T10:23:32;51564.06;;;-142.34;22.30
12951;BME280;6540;50.858;7.232;2023-05-24T10:26:04;51628.63;;;-142.34;23.27
12951;BME280;6540;50.858;7.232;2023-05-24T10:28:33;51580.19;;;-142.34;23.65
12951;BME280;6540;50.858;7.232;2023-05-24T10:31:09;51648.78;;;-142.34;23.45
12951;BME280;6540;50.858;7.232;2023-05-24T10:33:37;51600.38;;;-142.34;22.70
12951;BME280;6540;50.858;7.232;2023-05-24T10:36:04;51588.28;;;-142.34;22.33
12951;BME280;6540;50.858;7.232;2023-05-24T10:38:31;51580.19;;;-142.34;23.23
12951;BME280;6540;50.858;7.232;2023-05-24T10:41:07;51660.88;;;-142.34;23.97
12951;BME280;6540;50.858;7.232;2023-05-24T10:43:37;51624.56;;;-142.34;23.36
12951;BME280;6540;50.858;7.232;2023-05-24T10:46:04;51564.06;;;-142.34;22.35
12951;BME280;6540;50.858;7.232;2023-05-24T10:48:44;51547.94;;;-142.34;21.93
12951;BME280;6540;50.858;7.232;2023-05-24T10:51:35;51620.53;;;-142.34;23.68
12951;BME280;6540;50.858;7.232;2023-05-24T10:54:23;51622.56;;;-142.34;22.60
12951;BME280;6540;50.858;7.232;2023-05-24T10:56:51;51632.66;;;-142.34;22.94
12951;BME280;6540;50.858;7.232;2023-05-24T10:59:37;51600.38;;;-142.34;22.13
12951;BME280;6540;50.858;7.232;2023-05-24T11:02:08;51568.09;;;-142.34;22.41
12951;BME280;6540;50.858;7.232;2023-05-24T11:04:39;51624.56;;;-142.34;23.54
12951;BME280;6540;50.858;7.232;2023-05-24T11:07:07;51596.34;;;-142.34;22.41
12951;BME280;6540;50.858;7.232;2023-05-24T11:09:39;51668.97;;;-142.34;23.87
12951;BME280;6540;50.858;7.232;2023-05-24T11:12:20;51679.03;;;-142.34;23.23
12951;BME280;6540;50.858;7.232;2023-05-24T11:14:56;51721.41;;;-142.34;25.46
12951;BME280;6540;50.858;7.232;2023-05-24T11:17:22;51677.03;;;-142.34;23.94
12951;BME280;6540;50.858;7.232;2023-05-24T11:19:52;51614.50;;;-142.34;23.21
12951;BME280;6540;50.858;7.232;2023-05-24T11:22:23;51564.06;;;-142.34;23.02
12951;BME280;6540;50.858;7.232;2023-05-24T11:24:53;51576.16;;;-142.34;22.11
12951;BME280;6540;50.858;7.232;2023-05-24T11:27:21;51588.28;;;-142.34;22.56
12951;BME280;6540;50.858;7.232;2023-05-24T11:29:59;51592.31;;;-142.34;22.34
12951;BME280;6540;50.858;7.232;2023-05-24T11:32:30;51584.22;;;-142.34;22.58
12951;BME280;6540;50.858;7.232;2023-05-24T11:35:28;51596.34;;;-142.34;23.02
12951;BME280;6540;50.858;7.232;2023-05-24T11:38:26;51642.72;;;-142.34;24.09
12951;BME280;6540;50.858;7.232;2023-05-24T11:40:51;51679.03;;;-142.34;24.39
12951;BME280;6540;50.858;7.232;2023-05-24T11:43:19;51697.19;;;-142.34;25.05
12951;BME280;6540;50.858;7.232;2023-05-24T11:45:48;51689.13;;;-142.34;24.40
12951;BME280;6540;50.858;7.232;2023-05-24T11:48:15;51616.50;;;-142.34;23.16
12951;BME280;6540;50.858;7.232;2023-05-24T11:50:43;51616.50;;;-142.34;24.28
12951;BME280;6540;50.858;7.232;2023-05-24T11:53:09;51648.78;;;-142.34;24.39
12951;BME280;6540;50.858;7.232;2023-05-24T11:55:35;51628.63;;;-142.34;23.85
12951;BME280;6540;50.858;7.232;2023-05-24T11:58:03;51636.69;;;-142.34;24.80
12951;BME280;6540;50.858;7.232;2023-05-24T12:00:30;51624.56;;;-142.34;23.68
12951;BME280;6540;50.858;7.232;2023-05-24T12:02:56;51660.88;;;-142.34;24.14
12951;BME280;6540;50.858;7.232;2023-05-24T12:05:25;51693.16;;;-142.34;24.98
12951;BME280;6540;50.858;7.232;2023-05-24T12:08:07;51664.91;;;-142.34;24.38
12951;BME280;6540;50.858;7.232;2023-05-24T12:10:37;51644.75;;;-142.34;23.88
12951;BME280;6540;50.858;7.232;2023-05-24T12:13:20;51616.50;;;-142.34;23.43
12951;BME280;6540;50.858;7.232;2023-05-24T12:15:50;51584.22;;;-142.34;22.65
12951;BME280;6540;50.858;7.232;2023-05-24T12:18:18;51646.75;;;-142.34;24.41
12951;BME280;6540;50.858;7.232;2023-05-24T12:20:47;51638.69;;;-142.34;24.28
12951;BME280;6540;50.858;7.232;2023-05-24T12:23:13;51640.72;;;-142.34;24.78
12951;BME280;6540;50.858;7.232;2023-05-24T12:25:38;51596.34;;;-142.34;23.55
12951;BME280;6540;50.858;7.232;2023-05-24T12:28:03;51685.09;;;-142.34;24.00
12951;BME280;6540;50.858;7.232;2023-05-24T12:30:29;51670.97;;;-142.34;23.93
12951;BME280;6540;50.858;7.232;2023-05-24T12:32:56;51592.31;;;-142.34;23.57
12951;BME280;6540;50.858;7.232;2023-05-24T12:35:33;51553.97;;;-142.34;22.99
12951;BME280;6540;50.858;7.232;2023-05-24T12:38:10;51636.69;;;-142.34;23.21
12951;BME280;6540;50.858;7.232;2023-05-24T12:40:35;51624.56;;;-142.34;23.43
12951;BME280;6540;50.858;7.232;2023-05-24T12:43:03;51592.31;;;-142.34;22.60
12951;BME280;6540;50.858;7.232;2023-05-24T12:45:32;51616.50;;;-142.34;23.31
12951;BME280;6540;50.858;7.232;2023-05-24T12:47:58;51654.84;;;-142.34;24.36
12951;BME280;6540;50.858;7.232;2023-05-24T12:50:25;51677.03;;;-142.34;24.60
12951;BME280;6540;50.858;7.232;2023-05-24T12:52:52;51660.88;;;-142.34;24.48
12951;BME280;6540;50.858;7.232;2023-05-24T12:55:30;51664.91;;;-142.34;23.78
12951;BME280;6540;50.858;7.232;2023-05-24T12:57:59;51608.44;;;-142.34;23.43
12951;BME280;6540;50.858;7.232;2023-05-24T13:00:30;51624.56;;;-142.34;23.04
12951;BME280;6540;50.858;7.232;2023-05-24T13:03:01;51644.75;;;-142.34;23.99